sensor_id;sensor_type;location;lat;lon;timestamp;P1;durP1;ratioP1;P2;durP2;ratioP2
64936;SDS011;51452;47.698;19.050;2022-08-20T00:00:44;7.85;;;2.47;;
64936;SDS011;51452;47.698;19.050;2022-08-20T00:05:49;5.60;;;2.63;;
64936;SDS011;51452;47.698;19.050;2022-08-20T00:08:20;7.72;;;2.60;;
64936;SDS011;51452;47.698;19.050;2022-08-20T00:10:47;5.25;;;2.50;;
64936;SDS011;51452;47.698;19.050;2022-08-20T00:13:15;7.47;;;2.78;;
64936;SDS011;51452;47.698;19.050;2022-08-20T00:15:42;8.45;;;2.53;;
64936;SDS011;51452;47.698;19.050;2022-08-20T00:18:08;8.32;;;2.67;;
64936;SDS011;51452;47.698;19.050;2022-08-20T00:20:37;6.63;;;2.65;;
64936;SDS011;51452;47.698;19.050;2022-08-20T00:23:04;7.50;;;2.40;;
64936;SDS011;51452;47.698;19.050;2022-08-20T00:25:30;8.90;;;3.10;;
64936;SDS011;51452;47.698;19.050;2022-08-20T00:27:56;5.63;;;2.53;;
64936;SDS011;51452;47.698;19.050;2022-08-20T00:30:22;7.18;;;2.50;;
64936;SDS011;51452;47.698;19.050;2022-08-20T00:32:50;9.18;;;2.60;;
64936;SDS011;51452;47.698;19.050;2022-08-20T00:37:49;9.70;;;2.80;;
64936;SDS011;51452;47.698;19.050;2022-08-20T00:40:16;8.02;;;3.10;;
64936;SDS011;51452;47.698;19.050;2022-08-20T00:42:45;10.85;;;2.90;;
64936;SDS011;51452;47.698;19.050;2022-08-20T00:45:14;5.75;;;2.70;;
64936;SDS011;51452;47.698;19.050;2022-08-20T00:47:40;6.30;;;2.70;;
64936;SDS011;51452;47.698;19.050;2022-08-20T00:50:10;9.48;;;2.70;;
64936;SDS011;51452;47.698;19.050;2022-08-20T00:52:39;13.77;;;3.17;;
64936;SDS011;51452;47.698;19.050;2022-08-20T00:55:07;9.65;;;2.40;;
64936;SDS011;51452;47.698;19.050;2022-08-20T00:57:36;7.00;;;2.88;;
64936;SDS011;51452;47.698;19.050;2022-08-20T01:00:05;6.43;;;2.63;;
64936;SDS011;51452;47.698;19.050;2022-08-20T01:02:35;8.23;;;3.03;;
64936;SDS011;51452;47.698;19.050;2022-08-20T01:05:01;4.60;;;2.65;;
64936;SDS011;51452;47.698;19.050;2022-08-20T01:07:27;8.60;;;3.00;;
64936;SDS011;51452;47.698;19.050;2022-08-20T01:09:58;11.80;;;3.10;;
64936;SDS011;51452;47.698;19.050;2022-08-20T01:12:29;9.82;;;3.42;;
64936;SDS011;51452;47.698;19.050;2022-08-20T01:14:55;11.10;;;3.80;;
64936;SDS011;51452;47.698;19.050;2022-08-20T01:17:23;5.65;;;2.92;;
64936;SDS011;51452;47.698;19.050;2022-08-20T01:19:54;6.43;;;2.92;;
64936;SDS011;51452;47.698;19.050;2022-08-20T01:23:10;8.60;;;2.67;;
64936;SDS011;51452;47.698;19.050;2022-08-20T01:25:51;7.47;;;2.25;;
64936;SDS011;51452;47.698;19.050;2022-08-20T01:28:30;8.73;;;2.58;;
64936;SDS011;51452;47.698;19.050;2022-08-20T01:31:00;8.50;;;2.90;;
64936;SDS011;51452;47.698;19.050;2022-08-20T01:33:26;10.27;;;3.00;;
64936;SDS011;51452;47.698;19.050;2022-08-20T01:35:52;10.00;;;3.25;;
64936;SDS011;51452;47.698;19.050;2022-08-20T01:38:17;8.13;;;3.28;;
64936;SDS011;51452;47.698;19.050;2022-08-20T01:40:51;8.02;;;3.05;;
64936;SDS011;51452;47.698;19.050;2022-08-20T01:43:19;8.93;;;2.95;;
64936;SDS011;51452;47.698;19.050;2022-08-20T01:45:44;8.75;;;3.25;;
64936;SDS011;51452;47.698;19.050;2022-08-20T01:48:10;12.57;;;3.55;;
64936;SDS011;51452;47.698;19.050;2022-08-20T01:50:39;10.68;;;3.13;;
64936;SDS011;51452;47.698;19.050;2022-08-20T01:53:29;8.15;;;2.88;;
64936;SDS011;51452;47.698;19.050;2022-08-20T01:55:59;8.73;;;3.15;;
64936;SDS011;51452;47.698;19.050;2022-08-20T01:58:26;7.00;;;2.90;;
64936;SDS011;51452;47.698;19.050;2022-08-20T02:00:53;8.68;;;3.17;;
64936;SDS011;51452;47.698;19.050;2022-08-20T02:03:20;11.32;;;3.38;;
64936;SDS011;51452;47.698;19.050;2022-08-20T02:05:45;9.30;;;3.38;;
64936;SDS011;51452;47.698;19.050;2022-08-20T02:08:11;8.38;;;3.38;;
64936;SDS011;51452;47.698;19.050;2022-08-20T02:10:36;13.25;;;3.63;;
64936;SDS011;51452;47.698;19.050;2022-08-20T02:13:02;10.85;;;3.42;;
64936;SDS011;51452;47.698;19.050;2022-08-20T02:15:29;8.25;;;3.05;;
64936;SDS011;51452;47.698;19.050;2022-08-20T02:17:55;9.10;;;3.15;;
64936;SDS011;51452;47.698;19.050;2022-08-20T02:20:22;11.45;;;3.10;;
64936;SDS011;51452;47.698;19.050;2022-08-20T02:22:54;7.93;;;3.13;;
64936;SDS011;51452;47.698;19.050;2022-08-20T02:25:21;7.30;;;3.08;;
64936;SDS011;51452;47.698;19.050;2022-08-20T02:27:51;7.05;;;2.78;;
64936;SDS011;51452;47.698;19.050;2022-08-20T02:30:19;8.02;;;3.45;;
64936;SDS011;51452;47.698;19.050;2022-08-20T02:32:51;16.50;;;3.33;;
64936;SDS011;51452;47.698;19.050;2022-08-20T02:35:17;6.82;;;3.03;;
64936;SDS011;51452;47.698;19.050;2022-08-20T02:37:43;6.90;;;3.08;;
64936;SDS011;51452;47.698;19.050;2022-08-20T02:40:12;12.32;;;3.40;;
64936;SDS011;51452;47.698;19.050;2022-08-20T02:42:40;8.05;;;2.95;;
64936;SDS011;51452;47.698;19.050;2022-08-20T02:45:08;11.32;;;3.05;;
64936;SDS011;51452;47.698;19.050;2022-08-20T02:47:37;8.38;;;3.10;;
64936;SDS011;51452;47.698;19.050;2022-08-20T02:50:03;12.48;;;3.25;;
64936;SDS011;51452;47.698;19.050;2022-08-20T02:52:30;7.93;;;3.38;;
64936;SDS011;51452;47.698;19.050;2022-08-20T02:54:56;10.25;;;3.67;;
64936;SDS011;51452;47.698;19.050;2022-08-20T02:57:21;9.07;;;3.90;;
64936;SDS011;51452;47.698;19.050;2022-08-20T02:59:47;14.20;;;4.10;;
64936;SDS011;51452;47.698;19.050;2022-08-20T03:02:13;8.90;;;3.58;;
64936;SDS011;51452;47.698;19.050;2022-08-20T03:04:40;9.63;;;3.45;;
64936;SDS011;51452;47.698;19.050;2022-08-20T03:07:07;9.48;;;3.58;;
64936;SDS011;51452;47.698;19.050;2022-08-20T03:09:34;15.35;;;4.00;;
64936;SDS011;51452;47.698;19.050;2022-08-20T03:12:00;10.23;;;3.03;;
64936;SDS011;51452;47.698;19.050;2022-08-20T03:14:26;13.88;;;3.72;;
64936;SDS011;51452;47.698;19.050;2022-08-20T03:16:52;7.88;;;3.03;;
64936;SDS011;51452;47.698;19.050;2022-08-20T03:19:18;11.35;;;3.35;;
64936;SDS011;51452;47.698;19.050;2022-08-20T03:21:43;14.32;;;3.50;;
64936;SDS011;51452;47.698;19.050;2022-08-20T03:24:09;11.07;;;3.88;;
64936;SDS011;51452;47.698;19.050;2022-08-20T03:26:34;11.23;;;3.20;;
64936;SDS011;51452;47.698;19.050;2022-08-20T03:29:00;10.40;;;3.80;;
64936;SDS011;51452;47.698;19.050;2022-08-20T03:31:25;11.55;;;3.40;;
64936;SDS011;51452;47.698;19.050;2022-08-20T03:33:51;6.82;;;3.25;;
64936;SDS011;51452;47.698;19.050;2022-08-20T03:36:16;12.38;;;3.35;;
64936;SDS011;51452;47.698;19.050;2022-08-20T03:38:43;10.38;;;4.15;;
64936;SDS011;51452;47.698;19.050;2022-08-20T03:41:08;11.93;;;3.55;;
64936;SDS011;51452;47.698;19.050;2022-08-20T03:43:33;12.02;;;3.25;;
64936;SDS011;51452;47.698;19.050;2022-08-20T03:46:01;8.32;;;2.92;;
64936;SDS011;51452;47.698;19.050;2022-08-20T03:48:27;7.60;;;3.22;;
64936;SDS011;51452;47.698;19.050;2022-08-20T03:50:52;9.77;;;3.22;;
64936;SDS011;51452;47.698;19.050;2022-08-20T03:53:21;10.60;;;3.70;;
64936;SDS011;51452;47.698;19.050;2022-08-20T03:55:47;8.60;;;3.45;;
64936;SDS011;51452;47.698;19.050;2022-08-20T03:58:14;7.30;;;3.58;;
64936;SDS011;51452;47.698;19.050;2022-08-20T04:00:49;8.48;;;3.30;;
64936;SDS011;51452;47.698;19.050;2022-08-20T04:03:15;8.48;;;3.58;;
64936;SDS011;51452;47.698;19.050;2022-08-20T04:05:41;9.68;;;3.50;;
64936;SDS011;51452;47.698;19.050;2022-08-20T04:08:12;11.10;;;3.53;;
64936;SDS011;51452;47.698;19.050;2022-08-20T04:10:40;8.63;;;3.50;;
64936;SDS011;51452;47.698;19.050;2022-08-20T04:13:06;9.38;;;3.50;;
64936;SDS011;51452;47.698;19.050;2022-08-20T04:15:33;8.30;;;3.10;;
64936;SDS011;51452;47.698;19.050;2022-08-20T04:18:00;12.43;;;3.10;;
64936;SDS011;51452;47.698;19.050;2022-08-20T04:20:28;12.32;;;3.22;;
64936;SDS011;51452;47.698;19.050;2022-08-20T04:22:54;12.02;;;3.50;;
64936;SDS011;51452;47.698;19.050;2022-08-20T04:25:20;11.80;;;3.45;;
64936;SDS011;51452;47.698;19.050;2022-08-20T04:27:47;8.52;;;2.38;;
64936;SDS011;51452;47.698;19.050;2022-08-20T04:30:15;8.55;;;2.70;;
64936;SDS011;51452;47.698;19.050;2022-08-20T04:32:42;8.98;;;2.83;;
64936;SDS011;51452;47.698;19.050;2022-08-20T04:35:08;13.25;;;3.05;;
64936;SDS011;51452;47.698;19.050;2022-08-20T04:37:38;7.55;;;2.90;;
64936;SDS011;51452;47.698;19.050;2022-08-20T04:40:05;8.60;;;3.15;;
64936;SDS011;51452;47.698;19.050;2022-08-20T04:42:51;8.40;;;2.85;;
64936;SDS011;51452;47.698;19.050;2022-08-20T04:45:16;10.75;;;3.15;;
64936;SDS011;51452;47.698;19.050;2022-08-20T04:47:42;11.63;;;3.22;;
64936;SDS011;51452;47.698;19.050;2022-08-20T04:50:08;12.75;;;3.05;;
64936;SDS011;51452;47.698;19.050;2022-08-20T04:52:35;10.52;;;3.60;;
64936;SDS011;51452;47.698;19.050;2022-08-20T04:55:02;4.50;;;2.30;;
64936;SDS011;51452;47.698;19.050;2022-08-20T04:57:28;6.25;;;2.65;;
64936;SDS011;51452;47.698;19.050;2022-08-20T04:59:53;10.65;;;2.70;;
64936;SDS011;51452;47.698;19.050;2022-08-20T05:02:19;6.90;;;2.90;;
64936;SDS011;51452;47.698;19.050;2022-08-20T05:04:45;4.97;;;2.28;;
64936;SDS011;51452;47.698;19.050;2022-08-20T05:07:11;9.23;;;3.20;;
64936;SDS011;51452;47.698;19.050;2022-08-20T05:09:37;15.10;;;3.80;;
64936;SDS011;51452;47.698;19.050;2022-08-20T05:12:03;11.40;;;2.95;;
64936;SDS011;51452;47.698;19.050;2022-08-20T05:14:28;8.27;;;2.90;;
64936;SDS011;51452;47.698;19.050;2022-08-20T05:16:55;7.10;;;3.13;;
64936;SDS011;51452;47.698;19.050;2022-08-20T05:19:21;5.30;;;2.30;;
64936;SDS011;51452;47.698;19.050;2022-08-20T05:21:47;7.68;;;2.47;;
64936;SDS011;51452;47.698;19.050;2022-08-20T05:24:12;5.28;;;2.15;;
64936;SDS011;51452;47.698;19.050;2022-08-20T05:26:38;8.57;;;2.65;;
64936;SDS011;51452;47.698;19.050;2022-08-20T05:29:03;11.90;;;2.83;;
64936;SDS011;51452;47.698;19.050;2022-08-20T05:31:30;12.57;;;3.28;;
64936;SDS011;51452;47.698;19.050;2022-08-20T05:33:57;9.80;;;2.92;;
64936;SDS011;51452;47.698;19.050;2022-08-20T05:36:22;7.78;;;3.42;;
64936;SDS011;51452;47.698;19.050;2022-08-20T05:38:48;7.93;;;3.20;;
64936;SDS011;51452;47.698;19.050;2022-08-20T05:41:13;10.93;;;3.22;;
64936;SDS011;51452;47.698;19.050;2022-08-20T05:43:40;7.00;;;2.78;;
64936;SDS011;51452;47.698;19.050;2022-08-20T05:46:05;7.30;;;2.47;;
64936;SDS011;51452;47.698;19.050;2022-08-20T05:48:30;7.53;;;2.78;;
64936;SDS011;51452;47.698;19.050;2022-08-20T05:50:59;7.97;;;3.05;;
64936;SDS011;51452;47.698;19.050;2022-08-20T05:53:24;7.95;;;3.03;;
64936;SDS011;51452;47.698;19.050;2022-08-20T05:55:50;6.53;;;2.50;;
64936;SDS011;51452;47.698;19.050;2022-08-20T05:58:18;8.25;;;2.88;;
64936;SDS011;51452;47.698;19.050;2022-08-20T06:00:49;6.65;;;2.70;;
64936;SDS011;51452;47.698;19.050;2022-08-20T06:03:15;13.43;;;3.10;;
64936;SDS011;51452;47.698;19.050;2022-08-20T06:05:59;7.68;;;2.60;;
64936;SDS011;51452;47.698;19.050;2022-08-20T06:08:25;6.70;;;2.88;;
64936;SDS011;51452;47.698;19.050;2022-08-20T06:10:50;9.90;;;3.13;;
64936;SDS011;51452;47.698;19.050;2022-08-20T06:13:15;8.93;;;2.80;;
64936;SDS011;51452;47.698;19.050;2022-08-20T06:15:41;11.68;;;3.00;;
64936;SDS011;51452;47.698;19.050;2022-08-20T06:18:07;10.23;;;3.35;;
64936;SDS011;51452;47.698;19.050;2022-08-20T06:20:34;7.78;;;3.17;;
64936;SDS011;51452;47.698;19.050;2022-08-20T06:23:02;7.93;;;3.10;;
64936;SDS011;51452;47.698;19.050;2022-08-20T06:25:28;7.22;;;2.92;;
64936;SDS011;51452;47.698;19.050;2022-08-20T06:27:54;8.15;;;2.97;;
64936;SDS011;51452;47.698;19.050;2022-08-20T06:30:19;6.80;;;3.25;;
64936;SDS011;51452;47.698;19.050;2022-08-20T06:32:45;9.52;;;3.13;;
64936;SDS011;51452;47.698;19.050;2022-08-20T06:35:10;12.60;;;4.03;;
64936;SDS011;51452;47.698;19.050;2022-08-20T06:37:36;10.73;;;4.15;;
64936;SDS011;51452;47.698;19.050;2022-08-20T06:40:16;12.75;;;4.63;;
64936;SDS011;51452;47.698;19.050;2022-08-20T06:42:44;12.13;;;3.72;;
64936;SDS011;51452;47.698;19.050;2022-08-20T06:45:10;9.70;;;3.55;;
64936;SDS011;51452;47.698;19.050;2022-08-20T06:47:40;12.65;;;3.55;;
64936;SDS011;51452;47.698;19.050;2022-08-20T06:50:10;9.20;;;3.75;;
64936;SDS011;51452;47.698;19.050;2022-08-20T06:52:37;8.65;;;3.53;;
64936;SDS011;51452;47.698;19.050;2022-08-20T06:55:04;8.43;;;3.47;;
64936;SDS011;51452;47.698;19.050;2022-08-20T06:57:32;9.50;;;3.38;;
64936;SDS011;51452;47.698;19.050;2022-08-20T06:59:57;8.73;;;3.03;;
64936;SDS011;51452;47.698;19.050;2022-08-20T07:02:23;18.17;;;4.68;;
64936;SDS011;51452;47.698;19.050;2022-08-20T07:04:48;9.07;;;3.60;;
64936;SDS011;51452;47.698;19.050;2022-08-20T07:07:15;8.60;;;3.78;;
64936;SDS011;51452;47.698;19.050;2022-08-20T07:09:41;6.50;;;3.35;;
64936;SDS011;51452;47.698;19.050;2022-08-20T07:12:07;9.85;;;3.28;;
64936;SDS011;51452;47.698;19.050;2022-08-20T07:14:34;11.55;;;2.90;;
64936;SDS011;51452;47.698;19.050;2022-08-20T07:17:01;7.68;;;2.83;;
64936;SDS011;51452;47.698;19.050;2022-08-20T07:19:27;12.75;;;3.03;;
64936;SDS011;51452;47.698;19.050;2022-08-20T07:21:52;5.63;;;2.70;;
64936;SDS011;51452;47.698;19.050;2022-08-20T07:24:18;10.50;;;2.75;;
64936;SDS011;51452;47.698;19.050;2022-08-20T07:26:43;7.40;;;2.33;;
64936;SDS011;51452;47.698;19.050;2022-08-20T07:29:09;9.02;;;2.90;;
64936;SDS011;51452;47.698;19.050;2022-08-20T07:31:34;10.25;;;2.50;;
64936;SDS011;51452;47.698;19.050;2022-08-20T07:34:18;10.63;;;2.88;;
64936;SDS011;51452;47.698;19.050;2022-08-20T07:36:43;7.43;;;2.45;;
64936;SDS011;51452;47.698;19.050;2022-08-20T07:39:09;11.77;;;2.90;;
64936;SDS011;51452;47.698;19.050;2022-08-20T07:41:35;11.52;;;2.70;;
64936;SDS011;51452;47.698;19.050;2022-08-20T07:44:00;9.32;;;2.53;;
64936;SDS011;51452;47.698;19.050;2022-08-20T07:46:26;10.95;;;2.47;;
64936;SDS011;51452;47.698;19.050;2022-08-20T07:48:51;11.23;;;2.67;;
64936;SDS011;51452;47.698;19.050;2022-08-20T07:51:17;10.65;;;3.00;;
64936;SDS011;51452;47.698;19.050;2022-08-20T07:53:44;6.00;;;1.95;;
64936;SDS011;51452;47.698;19.050;2022-08-20T07:56:12;11.40;;;2.40;;
64936;SDS011;51452;47.698;19.050;2022-08-20T07:58:43;9.82;;;2.95;;
64936;SDS011;51452;47.698;19.050;2022-08-20T08:01:13;8.52;;;3.25;;
64936;SDS011;51452;47.698;19.050;2022-08-20T08:03:40;11.02;;;2.85;;
64936;SDS011;51452;47.698;19.050;2022-08-20T08:06:05;8.23;;;2.42;;
64936;SDS011;51452;47.698;19.050;2022-08-20T08:08:31;8.68;;;2.90;;
64936;SDS011;51452;47.698;19.050;2022-08-20T08:10:58;7.95;;;2.65;;
64936;SDS011;51452;47.698;19.050;2022-08-20T08:13:27;8.90;;;2.67;;
64936;SDS011;51452;47.698;19.050;2022-08-20T08:15:57;8.98;;;3.10;;
64936;SDS011;51452;47.698;19.050;2022-08-20T08:18:27;11.00;;;3.72;;
64936;SDS011;51452;47.698;19.050;2022-08-20T08:20:57;8.30;;;3.03;;
64936;SDS011;51452;47.698;19.050;2022-08-20T08:23:23;11.85;;;3.40;;
64936;SDS011;51452;47.698;19.050;2022-08-20T08:25:49;11.63;;;3.35;;
64936;SDS011;51452;47.698;19.050;2022-08-20T08:28:18;10.48;;;3.53;;
64936;SDS011;51452;47.698;19.050;2022-08-20T08:30:45;13.55;;;3.03;;
64936;SDS011;51452;47.698;19.050;2022-08-20T08:33:44;10.48;;;3.13;;
64936;SDS011;51452;47.698;19.050;2022-08-20T08:36:05;11.00;;;2.20;;
64936;SDS011;51452;47.698;19.050;2022-08-20T08:38:34;12.13;;;2.65;;
64936;SDS011;51452;47.698;19.050;2022-08-20T08:44:08;7.45;;;2.63;;
64936;SDS011;51452;47.698;19.050;2022-08-20T08:46:42;11.75;;;2.78;;
64936;SDS011;51452;47.698;19.050;2022-08-20T08:49:13;7.57;;;2.50;;
64936;SDS011;51452;47.698;19.050;2022-08-20T08:51:46;8.55;;;2.80;;
64936;SDS011;51452;47.698;19.050;2022-08-20T08:54:16;8.13;;;3.40;;
64936;SDS011;51452;47.698;19.050;2022-08-20T08:56:44;9.05;;;2.95;;
64936;SDS011;51452;47.698;19.050;2022-08-20T08:59:10;8.10;;;2.70;;
64936;SDS011;51452;47.698;19.050;2022-08-20T09:01:40;9.40;;;2.78;;
64936;SDS011;51452;47.698;19.050;2022-08-20T09:04:09;10.02;;;2.85;;
64936;SDS011;51452;47.698;19.050;2022-08-20T09:06:36;10.88;;;2.53;;
64936;SDS011;51452;47.698;19.050;2022-08-20T09:09:04;9.45;;;2.33;;
64936;SDS011;51452;47.698;19.050;2022-08-20T09:11:35;10.18;;;2.67;;
64936;SDS011;51452;47.698;19.050;2022-08-20T09:14:10;8.63;;;2.42;;
64936;SDS011;51452;47.698;19.050;2022-08-20T09:16:36;6.40;;;2.40;;
64936;SDS011;51452;47.698;19.050;2022-08-20T09:19:01;9.90;;;2.65;;
64936;SDS011;51452;47.698;19.050;2022-08-20T09:21:28;11.20;;;2.25;;
64936;SDS011;51452;47.698;19.050;2022-08-20T09:23:53;8.50;;;2.75;;
64936;SDS011;51452;47.698;19.050;2022-08-20T09:26:19;5.35;;;2.40;;
64936;SDS011;51452;47.698;19.050;2022-08-20T09:28:44;10.90;;;3.08;;
64936;SDS011;51452;47.698;19.050;2022-08-20T09:31:09;10.65;;;2.45;;
64936;SDS011;51452;47.698;19.050;2022-08-20T09:33:35;9.80;;;3.35;;
64936;SDS011;51452;47.698;19.050;2022-08-20T09:36:00;8.98;;;2.95;;
64936;SDS011;51452;47.698;19.050;2022-08-20T09:38:26;11.65;;;2.50;;
64936;SDS011;51452;47.698;19.050;2022-08-20T09:40:51;10.20;;;3.20;;
64936;SDS011;51452;47.698;19.050;2022-08-20T09:43:17;8.02;;;2.60;;
64936;SDS011;51452;47.698;19.050;2022-08-20T09:45:42;9.73;;;2.92;;
64936;SDS011;51452;47.698;19.050;2022-08-20T09:48:07;11.02;;;3.42;;
64936;SDS011;51452;47.698;19.050;2022-08-20T09:50:34;13.82;;;3.97;;
64936;SDS011;51452;47.698;19.050;2022-08-20T09:53:01;12.18;;;5.07;;
64936;SDS011;51452;47.698;19.050;2022-08-20T09:55:35;11.43;;;4.72;;
64936;SDS011;51452;47.698;19.050;2022-08-20T09:58:15;12.48;;;4.55;;
64936;SDS011;51452;47.698;19.050;2022-08-20T10:01:04;17.35;;;4.53;;
64936;SDS011;51452;47.698;19.050;2022-08-20T10:03:35;8.70;;;3.90;;
64936;SDS011;51452;47.698;19.050;2022-08-20T10:06:00;15.43;;;4.07;;
64936;SDS011;51452;47.698;19.050;2022-08-20T10:08:26;8.40;;;3.85;;
64936;SDS011;51452;47.698;19.050;2022-08-20T10:10:51;11.18;;;4.03;;
64936;SDS011;51452;47.698;19.050;2022-08-20T10:13:16;11.57;;;3.78;;
64936;SDS011;51452;47.698;19.050;2022-08-20T10:15:42;11.32;;;4.32;;
64936;SDS011;51452;47.698;19.050;2022-08-20T10:18:07;8.75;;;3.70;;
64936;SDS011;51452;47.698;19.050;2022-08-20T10:20:33;9.45;;;3.20;;
64936;SDS011;51452;47.698;19.050;2022-08-20T10:22:59;8.30;;;2.55;;
64936;SDS011;51452;47.698;19.050;2022-08-20T10:25:25;6.45;;;2.92;;
64936;SDS011;51452;47.698;19.050;2022-08-20T10:27:52;8.10;;;3.47;;
64936;SDS011;51452;47.698;19.050;2022-08-20T10:30:18;10.02;;;3.30;;
64936;SDS011;51452;47.698;19.050;2022-08-20T10:32:43;7.93;;;2.75;;
64936;SDS011;51452;47.698;19.050;2022-08-20T10:35:09;9.43;;;3.00;;
64936;SDS011;51452;47.698;19.050;2022-08-20T10:37:34;10.52;;;2.55;;
64936;SDS011;51452;47.698;19.050;2022-08-20T10:40:00;7.75;;;2.60;;
64936;SDS011;51452;47.698;19.050;2022-08-20T10:42:26;7.03;;;2.70;;
64936;SDS011;51452;47.698;19.050;2022-08-20T10:44:51;6.68;;;2.63;;
64936;SDS011;51452;47.698;19.050;2022-08-20T10:47:23;7.57;;;3.10;;
64936;SDS011;51452;47.698;19.050;2022-08-20T10:49:51;10.45;;;3.38;;
64936;SDS011;51452;47.698;19.050;2022-08-20T10:52:18;7.22;;;3.15;;
64936;SDS011;51452;47.698;19.050;2022-08-20T10:54:45;6.65;;;3.00;;
64936;SDS011;51452;47.698;19.050;2022-08-20T10:57:22;5.82;;;3.00;;
64936;SDS011;51452;47.698;19.050;2022-08-20T10:59:53;8.80;;;3.00;;
64936;SDS011;51452;47.698;19.050;2022-08-20T11:02:20;8.90;;;2.95;;
64936;SDS011;51452;47.698;19.050;2022-08-20T11:04:47;6.68;;;3.00;;
64936;SDS011;51452;47.698;19.050;2022-08-20T11:07:14;7.00;;;3.25;;
64936;SDS011;51452;47.698;19.050;2022-08-20T11:09:51;7.28;;;3.10;;
64936;SDS011;51452;47.698;19.050;2022-08-20T11:12:17;7.28;;;3.40;;
64936;SDS011;51452;47.698;19.050;2022-08-20T11:14:44;10.52;;;3.85;;
64936;SDS011;51452;47.698;19.050;2022-08-20T11:17:09;8.65;;;3.30;;
64936;SDS011;51452;47.698;19.050;2022-08-20T11:19:42;11.73;;;4.70;;
64936;SDS011;51452;47.698;19.050;2022-08-20T11:22:08;9.75;;;3.33;;
64936;SDS011;51452;47.698;19.050;2022-08-20T11:24:35;9.15;;;3.50;;
64936;SDS011;51452;47.698;19.050;2022-08-20T11:27:01;8.77;;;3.42;;
64936;SDS011;51452;47.698;19.050;2022-08-20T11:29:26;14.70;;;3.80;;
64936;SDS011;51452;47.698;19.050;2022-08-20T11:31:52;9.00;;;3.97;;
64936;SDS011;51452;47.698;19.050;2022-08-20T11:34:17;8.02;;;3.78;;
64936;SDS011;51452;47.698;19.050;2022-08-20T11:36:43;8.82;;;3.15;;
64936;SDS011;51452;47.698;19.050;2022-08-20T11:39:10;5.93;;;2.95;;
64936;SDS011;51452;47.698;19.050;2022-08-20T11:41:35;5.80;;;2.67;;
64936;SDS011;51452;47.698;19.050;2022-08-20T11:44:01;7.95;;;2.63;;
64936;SDS011;51452;47.698;19.050;2022-08-20T11:46:26;7.65;;;3.10;;
64936;SDS011;51452;47.698;19.050;2022-08-20T11:48:51;5.63;;;2.90;;
64936;SDS011;51452;47.698;19.050;2022-08-20T11:51:17;6.30;;;3.13;;
64936;SDS011;51452;47.698;19.050;2022-08-20T11:53:42;7.20;;;2.95;;
64936;SDS011;51452;47.698;19.050;2022-08-20T11:56:07;7.25;;;3.08;;
64936;SDS011;51452;47.698;19.050;2022-08-20T11:58:33;7.30;;;2.83;;
64936;SDS011;51452;47.698;19.050;2022-08-20T12:00:59;6.38;;;2.67;;
64936;SDS011;51452;47.698;19.050;2022-08-20T12:03:24;10.52;;;3.00;;
64936;SDS011;51452;47.698;19.050;2022-08-20T12:05:49;6.93;;;2.97;;
64936;SDS011;51452;47.698;19.050;2022-08-20T12:08:15;7.85;;;2.53;;
64936;SDS011;51452;47.698;19.050;2022-08-20T12:10:41;7.45;;;3.08;;
64936;SDS011;51452;47.698;19.050;2022-08-20T12:13:07;6.45;;;2.45;;
64936;SDS011;51452;47.698;19.050;2022-08-20T12:15:33;6.13;;;2.67;;
64936;SDS011;51452;47.698;19.050;2022-08-20T12:18:01;6.45;;;2.42;;
64936;SDS011;51452;47.698;19.050;2022-08-20T12:20:31;6.47;;;3.10;;
64936;SDS011;51452;47.698;19.050;2022-08-20T12:22:56;5.28;;;2.78;;
64936;SDS011;51452;47.698;19.050;2022-08-20T12:25:22;7.30;;;2.83;;
64936;SDS011;51452;47.698;19.050;2022-08-20T12:27:48;7.03;;;3.10;;
64936;SDS011;51452;47.698;19.050;2022-08-20T12:30:15;6.40;;;2.28;;
64936;SDS011;51452;47.698;19.050;2022-08-20T12:32:44;6.93;;;2.58;;
64936;SDS011;51452;47.698;19.050;2022-08-20T12:35:09;4.97;;;2.42;;
64936;SDS011;51452;47.698;19.050;2022-08-20T12:37:36;8.50;;;3.33;;
64936;SDS011;51452;47.698;19.050;2022-08-20T12:40:04;6.30;;;2.45;;
64936;SDS011;51452;47.698;19.050;2022-08-20T12:42:32;7.35;;;2.55;;
64936;SDS011;51452;47.698;19.050;2022-08-20T12:44:57;6.43;;;3.17;;
64936;SDS011;51452;47.698;19.050;2022-08-20T12:47:28;8.20;;;3.03;;
64936;SDS011;51452;47.698;19.050;2022-08-20T12:49:56;4.95;;;2.40;;
64936;SDS011;51452;47.698;19.050;2022-08-20T12:52:25;9.98;;;2.88;;
64936;SDS011;51452;47.698;19.050;2022-08-20T12:54:51;7.68;;;2.55;;
64936;SDS011;51452;47.698;19.050;2022-08-20T12:57:25;9.73;;;2.63;;
64936;SDS011;51452;47.698;19.050;2022-08-20T13:00:03;7.82;;;2.60;;
64936;SDS011;51452;47.698;19.050;2022-08-20T13:02:31;9.48;;;2.65;;
64936;SDS011;51452;47.698;19.050;2022-08-20T13:04:56;6.93;;;2.85;;
64936;SDS011;51452;47.698;19.050;2022-08-20T13:07:22;6.68;;;2.65;;
64936;SDS011;51452;47.698;19.050;2022-08-20T13:09:47;6.38;;;2.70;;
64936;SDS011;51452;47.698;19.050;2022-08-20T13:12:13;11.13;;;3.63;;
64936;SDS011;51452;47.698;19.050;2022-08-20T13:14:39;11.00;;;3.03;;
64936;SDS011;51452;47.698;19.050;2022-08-20T13:17:05;5.78;;;3.00;;
64936;SDS011;51452;47.698;19.050;2022-08-20T13:19:31;9.52;;;3.10;;
64936;SDS011;51452;47.698;19.050;2022-08-20T13:21:59;10.98;;;3.55;;
64936;SDS011;51452;47.698;19.050;2022-08-20T13:24:24;9.25;;;3.20;;
64936;SDS011;51452;47.698;19.050;2022-08-20T13:26:50;12.40;;;3.10;;
64936;SDS011;51452;47.698;19.050;2022-08-20T13:29:16;7.75;;;2.88;;
64936;SDS011;51452;47.698;19.050;2022-08-20T13:31:42;12.27;;;3.58;;
64936;SDS011;51452;47.698;19.050;2022-08-20T13:34:07;4.60;;;2.78;;
64936;SDS011;51452;47.698;19.050;2022-08-20T13:36:33;7.65;;;2.65;;
64936;SDS011;51452;47.698;19.050;2022-08-20T13:38:59;6.32;;;2.63;;
64936;SDS011;51452;47.698;19.050;2022-08-20T13:41:25;8.02;;;2.40;;
64936;SDS011;51452;47.698;19.050;2022-08-20T13:43:51;8.77;;;2.72;;
64936;SDS011;51452;47.698;19.050;2022-08-20T13:46:17;11.25;;;2.50;;
64936;SDS011;51452;47.698;19.050;2022-08-20T13:48:42;8.65;;;2.35;;
64936;SDS011;51452;47.698;19.050;2022-08-20T13:51:08;8.98;;;2.80;;
64936;SDS011;51452;47.698;19.050;2022-08-20T13:53:33;6.25;;;2.50;;
64936;SDS011;51452;47.698;19.050;2022-08-20T13:55:59;7.65;;;2.60;;
64936;SDS011;51452;47.698;19.050;2022-08-20T13:58:24;5.40;;;2.42;;
64936;SDS011;51452;47.698;19.050;2022-08-20T14:00:50;7.95;;;2.78;;
64936;SDS011;51452;47.698;19.050;2022-08-20T14:03:16;10.20;;;2.80;;
64936;SDS011;51452;47.698;19.050;2022-08-20T14:05:41;14.07;;;2.30;;
64936;SDS011;51452;47.698;19.050;2022-08-20T14:08:11;6.60;;;2.70;;
64936;SDS011;51452;47.698;19.050;2022-08-20T14:10:42;6.30;;;2.20;;
64936;SDS011;51452;47.698;19.050;2022-08-20T14:13:08;10.07;;;2.80;;
64936;SDS011;51452;47.698;19.050;2022-08-20T14:15:34;8.65;;;2.72;;
64936;SDS011;51452;47.698;19.050;2022-08-20T14:18:00;8.82;;;2.72;;
64936;SDS011;51452;47.698;19.050;2022-08-20T14:20:28;6.75;;;2.70;;
64936;SDS011;51452;47.698;19.050;2022-08-20T14:22:56;10.55;;;2.85;;
64936;SDS011;51452;47.698;19.050;2022-08-20T14:25:22;9.57;;;2.70;;
64936;SDS011;51452;47.698;19.050;2022-08-20T14:27:48;7.40;;;3.00;;
64936;SDS011;51452;47.698;19.050;2022-08-20T14:30:17;7.78;;;2.83;;
64936;SDS011;51452;47.698;19.050;2022-08-20T14:32:47;7.50;;;2.85;;
64936;SDS011;51452;47.698;19.050;2022-08-20T14:35:13;10.02;;;2.92;;
64936;SDS011;51452;47.698;19.050;2022-08-20T14:37:40;6.95;;;3.42;;
64936;SDS011;51452;47.698;19.050;2022-08-20T14:40:08;16.13;;;3.28;;